Terminal Aerodrome Forecast
Issued by NWS

Home | Current Version | Previous Version | Text Only | Print | Product List | Glossary On
Versions: 1 2 3 4 5 6 7 8 9 10 11 12 13 14 15 16 17
000
FTAK31 PAJN 190524
TAFAJN
TAF
PAJN 190524Z 1906/2006 VRB03KT 5SM -RASN FEW005 BKN025 OVC040
      WS020/12035KT
     FM191200 12010KT 6SM -RASN BKN025 OVC035 WS020/15035KT
     FM191900 VRB04KT P6SM VCSH SCT025 BKN035 OVC050=

USA.gov is the U.S. government's official web portal to all federal, state and local government web resources and services.